sensor_id;sensor_type;location;lat;lon;timestamp;temperature;humidity
45339;DHT22;31071;51.478;5.710;2023-05-27T06:22:36;11.40;99.90
45339;DHT22;31071;51.478;5.710;2023-05-27T06:25:44;12.50;99.90
45339;DHT22;31071;51.478;5.710;2023-05-27T08:30:45;18.40;91.20
45339;DHT22;31071;51.478;5.710;2023-05-27T08:33:12;18.20;90.90
45339;DHT22;31071;51.478;5.710;2023-05-27T08:35:37;19.10;92.00
45339;DHT22;31071;51.478;5.710;2023-05-27T08:38:21;17.50;92.10
45339;DHT22;31071;51.478;5.710;2023-05-27T08:43:15;17.20;92.30
45339;DHT22;31071;51.478;5.710;2023-05-27T08:45:41;17.70;90.70
45339;DHT22;31071;51.478;5.710;2023-05-27T08:48:08;17.70;91.50
45339;DHT22;31071;51.478;5.710;2023-05-27T08:50:38;17.60;91.20
45339;DHT22;31071;51.478;5.710;2023-05-27T08:53:05;17.40;91.70
45339;DHT22;31071;51.478;5.710;2023-05-27T08:55:30;17.50;91.90
45339;DHT22;31071;51.478;5.710;2023-05-27T09:01:07;17.90;91.50
45339;DHT22;31071;51.478;5.710;2023-05-27T09:09:24;18.20;90.80
45339;DHT22;31071;51.478;5.710;2023-05-27T09:11:50;20.00;90.50
45339;DHT22;31071;51.478;5.710;2023-05-27T09:14:27;18.50;90.20
45339;DHT22;31071;51.478;5.710;2023-05-27T09:17:07;19.00;88.50
45339;DHT22;31071;51.478;5.710;2023-05-27T09:19:33;18.90;89.70
45339;DHT22;31071;51.478;5.710;2023-05-27T09:21:59;19.00;89.80
45339;DHT22;31071;51.478;5.710;2023-05-27T09:24:25;19.10;84.00
45339;DHT22;31071;51.478;5.710;2023-05-27T09:26:51;19.30;86.80
45339;DHT22;31071;51.478;5.710;2023-05-27T09:29:18;19.20;83.10
45339;DHT22;31071;51.478;5.710;2023-05-27T09:31:45;19.90;84.30
45339;DHT22;31071;51.478;5.710;2023-05-27T09:34:16;18.80;81.80
45339;DHT22;31071;51.478;5.710;2023-05-27T09:36:47;19.20;84.20
45339;DHT22;31071;51.478;5.710;2023-05-27T09:39:14;20.40;85.40
45339;DHT22;31071;51.478;5.710;2023-05-27T09:41:42;18.50;82.20
45339;DHT22;31071;51.478;5.710;2023-05-27T09:44:08;21.70;80.40
45339;DHT22;31071;51.478;5.710;2023-05-27T09:46:34;19.80;79.00
45339;DHT22;31071;51.478;5.710;2023-05-27T09:49:01;20.70;81.60
45339;DHT22;31071;51.478;5.710;2023-05-27T09:51:28;21.90;81.40
45339;DHT22;31071;51.478;5.710;2023-05-27T09:53:54;21.00;72.40
45339;DHT22;31071;51.478;5.710;2023-05-27T09:56:24;23.30;72.60
45339;DHT22;31071;51.478;5.710;2023-05-27T09:58:50;21.50;70.20
45339;DHT22;31071;51.478;5.710;2023-05-27T10:01:15;21.50;70.70
45339;DHT22;31071;51.478;5.710;2023-05-27T10:03:43;21.90;71.50
45339;DHT22;31071;51.478;5.710;2023-05-27T10:06:12;22.10;68.40
45339;DHT22;31071;51.478;5.710;2023-05-27T10:08:42;23.10;68.50
45339;DHT22;31071;51.478;5.710;2023-05-27T10:11:10;23.30;68.40
45339;DHT22;31071;51.478;5.710;2023-05-27T10:13:36;22.10;67.30
45339;DHT22;31071;51.478;5.710;2023-05-27T10:16:02;23.30;69.30
45339;DHT22;31071;51.478;5.710;2023-05-27T10:18:29;23.40;67.40
45339;DHT22;31071;51.478;5.710;2023-05-27T10:20:57;23.80;68.00
45339;DHT22;31071;51.478;5.710;2023-05-27T10:23:27;22.20;63.60
45339;DHT22;31071;51.478;5.710;2023-05-27T10:25:56;22.70;66.30
45339;DHT22;31071;51.478;5.710;2023-05-27T10:28:26;23.90;61.20
45339;DHT22;31071;51.478;5.710;2023-05-27T10:33:35;21.80;61.30
45339;DHT22;31071;51.478;5.710;2023-05-27T10:36:27;22.20;62.40
45339;DHT22;31071;51.478;5.710;2023-05-27T10:39:11;22.50;62.30
45339;DHT22;31071;51.478;5.710;2023-05-27T10:41:48;22.70;58.80
45339;DHT22;31071;51.478;5.710;2023-05-27T10:44:32;22.40;58.10
45339;DHT22;31071;51.478;5.710;2023-05-27T10:47:02;22.70;59.60
45339;DHT22;31071;51.478;5.710;2023-05-27T10:49:28;22.80;60.00
45339;DHT22;31071;51.478;5.710;2023-05-27T10:52:08;24.00;62.30
45339;DHT22;31071;51.478;5.710;2023-05-27T10:54:39;22.60;60.50
45339;DHT22;31071;51.478;5.710;2023-05-27T10:57:06;24.60;61.20
45339;DHT22;31071;51.478;5.710;2023-05-27T10:59:44;24.60;61.00
45339;DHT22;31071;51.478;5.710;2023-05-27T11:02:12;23.30;59.10
45339;DHT22;31071;51.478;5.710;2023-05-27T11:04:38;24.80;59.40
45339;DHT22;31071;51.478;5.710;2023-05-27T11:07:04;23.10;58.30
45339;DHT22;31071;51.478;5.710;2023-05-27T11:09:31;23.20;58.70
45339;DHT22;31071;51.478;5.710;2023-05-27T11:11:56;22.50;59.90
45339;DHT22;31071;51.478;5.710;2023-05-27T11:14:25;23.20;60.80
45339;DHT22;31071;51.478;5.710;2023-05-27T11:16:51;23.60;62.80
45339;DHT22;31071;51.478;5.710;2023-05-27T11:19:18;23.50;61.10
45339;DHT22;31071;51.478;5.710;2023-05-27T11:21:47;21.80;63.20
45339;DHT22;31071;51.478;5.710;2023-05-27T11:24:19;23.20;63.20
45339;DHT22;31071;51.478;5.710;2023-05-27T11:26:46;23.80;60.80
45339;DHT22;31071;51.478;5.710;2023-05-27T11:29:13;22.70;59.30
45339;DHT22;31071;51.478;5.710;2023-05-27T11:31:39;23.10;56.50
45339;DHT22;31071;51.478;5.710;2023-05-27T11:34:15;25.30;55.30
45339;DHT22;31071;51.478;5.710;2023-05-27T11:36:44;24.70;51.60
45339;DHT22;31071;51.478;5.710;2023-05-27T11:39:11;25.30;52.80
45339;DHT22;31071;51.478;5.710;2023-05-27T11:41:54;25.20;51.70
45339;DHT22;31071;51.478;5.710;2023-05-27T11:44:22;25.00;50.70
45339;DHT22;31071;51.478;5.710;2023-05-27T11:46:49;27.00;49.80
45339;DHT22;31071;51.478;5.710;2023-05-27T11:49:19;27.40;48.80
45339;DHT22;31071;51.478;5.710;2023-05-27T11:51:49;25.70;46.70
45339;DHT22;31071;51.478;5.710;2023-05-27T11:54:20;25.70;48.50
45339;DHT22;31071;51.478;5.710;2023-05-27T11:56:48;25.90;50.80
45339;DHT22;31071;51.478;5.710;2023-05-27T11:59:14;27.10;49.30
45339;DHT22;31071;51.478;5.710;2023-05-27T12:01:43;28.20;48.50
45339;DHT22;31071;51.478;5.710;2023-05-27T12:04:09;28.80;46.40
45339;DHT22;31071;51.478;5.710;2023-05-27T12:06:35;28.70;42.90
45339;DHT22;31071;51.478;5.710;2023-05-27T12:09:02;29.80;43.90
45339;DHT22;31071;51.478;5.710;2023-05-27T12:11:29;30.00;42.00
45339;DHT22;31071;51.478;5.710;2023-05-27T12:13:54;30.20;41.30
45339;DHT22;31071;51.478;5.710;2023-05-27T12:16:20;30.20;41.20
45339;DHT22;31071;51.478;5.710;2023-05-27T12:18:46;29.70;41.40
45339;DHT22;31071;51.478;5.710;2023-05-27T12:21:12;31.90;40.00
45339;DHT22;31071;51.478;5.710;2023-05-27T12:23:38;31.60;39.90
45339;DHT22;31071;51.478;5.710;2023-05-27T12:26:04;31.00;40.90
45339;DHT22;31071;51.478;5.710;2023-05-27T12:28:29;29.80;38.10
45339;DHT22;31071;51.478;5.710;2023-05-27T12:30:55;30.60;40.40
45339;DHT22;31071;51.478;5.710;2023-05-27T12:33:21;30.60;42.10
45339;DHT22;31071;51.478;5.710;2023-05-27T12:35:46;29.90;41.80
45339;DHT22;31071;51.478;5.710;2023-05-27T12:38:12;31.50;39.60
45339;DHT22;31071;51.478;5.710;2023-05-27T12:40:38;30.70;39.50
45339;DHT22;31071;51.478;5.710;2023-05-27T12:43:03;31.60;38.90
45339;DHT22;31071;51.478;5.710;2023-05-27T12:45:30;31.60;38.00
45339;DHT22;31071;51.478;5.710;2023-05-27T12:47:56;30.80;38.30
45339;DHT22;31071;51.478;5.710;2023-05-27T12:50:22;31.30;38.80
45339;DHT22;31071;51.478;5.710;2023-05-27T12:52:48;30.50;37.50
45339;DHT22;31071;51.478;5.710;2023-05-27T12:55:15;30.30;38.80
45339;DHT22;31071;51.478;5.710;2023-05-27T12:57:43;30.90;38.50
45339;DHT22;31071;51.478;5.710;2023-05-27T13:00:09;31.20;38.40
45339;DHT22;31071;51.478;5.710;2023-05-27T13:02:35;30.90;38.40
45339;DHT22;31071;51.478;5.710;2023-05-27T13:05:02;30.90;38.80
45339;DHT22;31071;51.478;5.710;2023-05-27T13:07:28;30.90;38.70
45339;DHT22;31071;51.478;5.710;2023-05-27T13:09:54;31.20;38.70
45339;DHT22;31071;51.478;5.710;2023-05-27T13:12:21;30.70;37.20
45339;DHT22;31071;51.478;5.710;2023-05-27T13:14:46;30.10;38.80
45339;DHT22;31071;51.478;5.710;2023-05-27T13:17:13;30.80;37.50
45339;DHT22;31071;51.478;5.710;2023-05-27T13:19:39;30.40;38.70
45339;DHT22;31071;51.478;5.710;2023-05-27T13:22:05;30.90;38.50
45339;DHT22;31071;51.478;5.710;2023-05-27T13:24:30;31.30;37.60
45339;DHT22;31071;51.478;5.710;2023-05-27T13:26:56;31.80;37.00
45339;DHT22;31071;51.478;5.710;2023-05-27T13:29:21;31.40;36.40
45339;DHT22;31071;51.478;5.710;2023-05-27T13:31:47;31.20;37.70
45339;DHT22;31071;51.478;5.710;2023-05-27T13:34:12;31.10;37.10
45339;DHT22;31071;51.478;5.710;2023-05-27T13:36:38;31.30;37.80
45339;DHT22;31071;51.478;5.710;2023-05-27T13:39:03;31.30;37.20
45339;DHT22;31071;51.478;5.710;2023-05-27T13:41:29;31.00;37.60
45339;DHT22;31071;51.478;5.710;2023-05-27T13:43:54;31.10;38.00
45339;DHT22;31071;51.478;5.710;2023-05-27T13:46:20;31.10;37.30
45339;DHT22;31071;51.478;5.710;2023-05-27T13:48:46;31.20;39.00
45339;DHT22;31071;51.478;5.710;2023-05-27T13:51:11;31.60;36.60
45339;DHT22;31071;51.478;5.710;2023-05-27T13:53:37;31.40;37.60
45339;DHT22;31071;51.478;5.710;2023-05-27T13:56:02;30.60;36.60
45339;DHT22;31071;51.478;5.710;2023-05-27T13:58:28;31.30;37.40
45339;DHT22;31071;51.478;5.710;2023-05-27T14:00:54;31.60;37.10
45339;DHT22;31071;51.478;5.710;2023-05-27T14:03:20;31.80;37.10
45339;DHT22;31071;51.478;5.710;2023-05-27T14:05:46;31.40;34.60
45339;DHT22;31071;51.478;5.710;2023-05-27T14:08:11;31.20;36.60
45339;DHT22;31071;51.478;5.710;2023-05-27T14:10:37;31.10;36.40
45339;DHT22;31071;51.478;5.710;2023-05-27T14:13:02;30.10;37.40
45339;DHT22;31071;51.478;5.710;2023-05-27T14:15:30;30.50;38.30
45339;DHT22;31071;51.478;5.710;2023-05-27T14:17:56;30.10;36.60
45339;DHT22;31071;51.478;5.710;2023-05-27T14:20:22;30.10;37.90
45339;DHT22;31071;51.478;5.710;2023-05-27T14:22:48;29.90;38.80
45339;DHT22;31071;51.478;5.710;2023-05-27T14:25:13;29.80;37.40
45339;DHT22;31071;51.478;5.710;2023-05-27T14:27:42;29.70;38.20
45339;DHT22;31071;51.478;5.710;2023-05-27T14:30:08;29.40;38.30
45339;DHT22;31071;51.478;5.710;2023-05-27T14:32:33;28.90;39.30
45339;DHT22;31071;51.478;5.710;2023-05-27T14:34:59;29.00;39.60
45339;DHT22;31071;51.478;5.710;2023-05-27T14:37:25;28.40;38.30
45339;DHT22;31071;51.478;5.710;2023-05-27T14:39:51;28.30;39.10
45339;DHT22;31071;51.478;5.710;2023-05-27T14:42:18;28.40;39.40
45339;DHT22;31071;51.478;5.710;2023-05-27T14:44:43;28.30;40.20
45339;DHT22;31071;51.478;5.710;2023-05-27T14:47:09;28.40;39.60
45339;DHT22;31071;51.478;5.710;2023-05-27T14:49:35;28.00;39.80
45339;DHT22;31071;51.478;5.710;2023-05-27T14:52:01;27.70;39.00
45339;DHT22;31071;51.478;5.710;2023-05-27T14:54:27;27.90;39.60
45339;DHT22;31071;51.478;5.710;2023-05-27T14:56:52;27.30;40.40
45339;DHT22;31071;51.478;5.710;2023-05-27T14:59:18;27.00;39.10
45339;DHT22;31071;51.478;5.710;2023-05-27T15:01:47;27.30;41.50
45339;DHT22;31071;51.478;5.710;2023-05-27T15:04:12;27.40;41.00
45339;DHT22;31071;51.478;5.710;2023-05-27T15:06:38;27.50;41.00
45339;DHT22;31071;51.478;5.710;2023-05-27T15:09:03;27.30;38.80
45339;DHT22;31071;51.478;5.710;2023-05-27T15:11:29;27.60;40.70
45339;DHT22;31071;51.478;5.710;2023-05-27T15:13:56;27.80;40.30
45339;DHT22;31071;51.478;5.710;2023-05-27T15:16:21;27.60;40.10
45339;DHT22;31071;51.478;5.710;2023-05-27T15:18:47;27.60;40.80
45339;DHT22;31071;51.478;5.710;2023-05-27T15:21:13;27.40;41.40
45339;DHT22;31071;51.478;5.710;2023-05-27T15:23:39;27.30;41.00
45339;DHT22;31071;51.478;5.710;2023-05-27T15:26:05;27.40;41.40
45339;DHT22;31071;51.478;5.710;2023-05-27T15:28:31;27.60;40.60
45339;DHT22;31071;51.478;5.710;2023-05-27T15:30:56;27.50;41.10
45339;DHT22;31071;51.478;5.710;2023-05-27T15:33:22;27.50;41.20
45339;DHT22;31071;51.478;5.710;2023-05-27T15:35:47;27.60;40.70
45339;DHT22;31071;51.478;5.710;2023-05-27T15:38:14;27.60;40.70
45339;DHT22;31071;51.478;5.710;2023-05-27T15:40:43;27.50;40.80
45339;DHT22;31071;51.478;5.710;2023-05-27T15:43:10;27.70;40.20
45339;DHT22;31071;51.478;5.710;2023-05-27T15:45:36;27.90;39.90
45339;DHT22;31071;51.478;5.710;2023-05-27T15:48:05;27.40;40.40
45339;DHT22;31071;51.478;5.710;2023-05-27T15:50:30;27.30;40.20
45339;DHT22;31071;51.478;5.710;2023-05-27T15:52:56;27.10;39.80
45339;DHT22;31071;51.478;5.710;2023-05-27T15:55:22;27.00;40.10
45339;DHT22;31071;51.478;5.710;2023-05-27T15:57:47;26.80;40.50
45339;DHT22;31071;51.478;5.710;2023-05-27T16:00:13;26.70;41.20
45339;DHT22;31071;51.478;5.710;2023-05-27T16:02:40;26.60;40.50
45339;DHT22;31071;51.478;5.710;2023-05-27T16:05:06;26.80;42.10
45339;DHT22;31071;51.478;5.710;2023-05-27T16:07:32;26.70;41.30
45339;DHT22;31071;51.478;5.710;2023-05-27T16:09:57;26.50;41.60
45339;DHT22;31071;51.478;5.710;2023-05-27T16:12:24;26.40;41.40
45339;DHT22;31071;51.478;5.710;2023-05-27T16:14:50;26.40;42.60
45339;DHT22;31071;51.478;5.710;2023-05-27T16:17:15;26.30;41.80
45339;DHT22;31071;51.478;5.710;2023-05-27T16:19:41;26.40;43.50
45339;DHT22;31071;51.478;5.710;2023-05-27T16:22:06;26.40;42.20
45339;DHT22;31071;51.478;5.710;2023-05-27T16:24:33;26.90;42.40
45339;DHT22;31071;51.478;5.710;2023-05-27T16:26:59;26.80;42.20
45339;DHT22;31071;51.478;5.710;2023-05-27T16:29:24;26.70;42.10
45339;DHT22;31071;51.478;5.710;2023-05-27T16:31:50;26.70;41.60
45339;DHT22;31071;51.478;5.710;2023-05-27T16:34:15;26.60;41.70
45339;DHT22;31071;51.478;5.710;2023-05-27T16:36:41;26.50;42.60
45339;DHT22;31071;51.478;5.710;2023-05-27T16:39:07;26.70;42.50
45339;DHT22;31071;51.478;5.710;2023-05-27T16:41:32;26.30;43.50
45339;DHT22;31071;51.478;5.710;2023-05-27T16:43:59;26.50;43.20
45339;DHT22;31071;51.478;5.710;2023-05-27T16:46:24;26.40;42.80
45339;DHT22;31071;51.478;5.710;2023-05-27T16:48:50;26.60;42.70
45339;DHT22;31071;51.478;5.710;2023-05-27T16:51:15;26.60;42.70
45339;DHT22;31071;51.478;5.710;2023-05-27T16:53:41;26.40;42.70
45339;DHT22;31071;51.478;5.710;2023-05-27T16:56:06;26.10;42.90
45339;DHT22;31071;51.478;5.710;2023-05-27T16:58:32;26.00;43.50
45339;DHT22;31071;51.478;5.710;2023-05-27T17:00:58;26.00;43.70
45339;DHT22;31071;51.478;5.710;2023-05-27T17:03:25;25.80;42.90
45339;DHT22;31071;51.478;5.710;2023-05-27T17:05:51;25.70;44.40
45339;DHT22;31071;51.478;5.710;2023-05-27T17:08:17;25.50;43.70
45339;DHT22;31071;51.478;5.710;2023-05-27T17:10:43;25.50;44.00
45339;DHT22;31071;51.478;5.710;2023-05-27T17:13:08;25.60;44.30
45339;DHT22;31071;51.478;5.710;2023-05-27T17:15:36;25.40;44.10
45339;DHT22;31071;51.478;5.710;2023-05-27T17:18:02;25.30;44.40
45339;DHT22;31071;51.478;5.710;2023-05-27T17:20:27;25.20;45.20
45339;DHT22;31071;51.478;5.710;2023-05-27T17:22:53;25.20;46.00
45339;DHT22;31071;51.478;5.710;2023-05-27T17:25:18;25.10;46.20
45339;DHT22;31071;51.478;5.710;2023-05-27T17:27:44;25.20;46.80
45339;DHT22;31071;51.478;5.710;2023-05-27T17:30:10;25.00;45.70
45339;DHT22;31071;51.478;5.710;2023-05-27T17:32:36;24.90;46.90
45339;DHT22;31071;51.478;5.710;2023-05-27T17:35:02;24.90;46.80
45339;DHT22;31071;51.478;5.710;2023-05-27T17:37:28;24.70;46.60
45339;DHT22;31071;51.478;5.710;2023-05-27T17:39:53;24.60;46.60
45339;DHT22;31071;51.478;5.710;2023-05-27T17:42:19;24.40;46.70
45339;DHT22;31071;51.478;5.710;2023-05-27T17:44:44;24.20;46.40
45339;DHT22;31071;51.478;5.710;2023-05-27T17:47:10;24.20;46.70
45339;DHT22;31071;51.478;5.710;2023-05-27T17:49:35;24.30;46.60
45339;DHT22;31071;51.478;5.710;2023-05-27T17:52:01;24.10;46.10
45339;DHT22;31071;51.478;5.710;2023-05-27T17:54:28;24.00;47.20
45339;DHT22;31071;51.478;5.710;2023-05-27T17:56:54;23.90;47.60
45339;DHT22;31071;51.478;5.710;2023-05-27T17:59:19;23.90;48.30
45339;DHT22;31071;51.478;5.710;2023-05-27T18:01:45;23.80;48.80
45339;DHT22;31071;51.478;5.710;2023-05-27T18:04:11;23.70;48.60
45339;DHT22;31071;51.478;5.710;2023-05-27T18:06:36;23.50;49.40
45339;DHT22;31071;51.478;5.710;2023-05-27T18:09:02;23.20;49.40
45339;DHT22;31071;51.478;5.710;2023-05-27T18:11:31;22.90;49.60
45339;DHT22;31071;51.478;5.710;2023-05-27T18:13:57;22.80;50.30
45339;DHT22;31071;51.478;5.710;2023-05-27T18:16:24;22.90;50.40
45339;DHT22;31071;51.478;5.710;2023-05-27T18:18:50;22.80;49.70
45339;DHT22;31071;51.478;5.710;2023-05-27T18:21:15;23.10;50.20
45339;DHT22;31071;51.478;5.710;2023-05-27T18:23:41;22.60;51.00
45339;DHT22;31071;51.478;5.710;2023-05-27T18:26:06;22.50;50.70
45339;DHT22;31071;51.478;5.710;2023-05-27T18:28:32;22.40;51.20
45339;DHT22;31071;51.478;5.710;2023-05-27T18:30:57;22.20;51.40
45339;DHT22;31071;51.478;5.710;2023-05-27T18:33:23;22.10;52.30
45339;DHT22;31071;51.478;5.710;2023-05-27T18:35:48;22.00;53.60
45339;DHT22;31071;51.478;5.710;2023-05-27T18:38:14;21.80;53.00
45339;DHT22;31071;51.478;5.710;2023-05-27T18:40:39;21.70;53.90
45339;DHT22;31071;51.478;5.710;2023-05-27T18:43:05;21.60;53.80
45339;DHT22;31071;51.478;5.710;2023-05-27T18:45:51;21.50;53.80
45339;DHT22;31071;51.478;5.710;2023-05-27T18:48:17;21.40;53.80
45339;DHT22;31071;51.478;5.710;2023-05-27T18:50:45;21.20;54.90
45339;DHT22;31071;51.478;5.710;2023-05-27T18:53:11;21.20;55.20
45339;DHT22;31071;51.478;5.710;2023-05-27T18:55:37;21.20;55.70
45339;DHT22;31071;51.478;5.710;2023-05-27T18:58:02;21.80;56.50
45339;DHT22;31071;51.478;5.710;2023-05-27T19:00:28;21.80;56.60
45339;DHT22;31071;51.478;5.710;2023-05-27T19:02:53;22.50;57.60
45339;DHT22;31071;51.478;5.710;2023-05-27T19:05:19;21.70;56.80
45339;DHT22;31071;51.478;5.710;2023-05-27T19:07:45;21.70;57.90
45339;DHT22;31071;51.478;5.710;2023-05-27T19:10:10;20.80;57.30
45339;DHT22;31071;51.478;5.710;2023-05-27T19:12:36;20.70;57.60
45339;DHT22;31071;51.478;5.710;2023-05-27T19:15:01;21.10;58.20
45339;DHT22;31071;51.478;5.710;2023-05-27T19:17:27;20.20;58.60
45339;DHT22;31071;51.478;5.710;2023-05-27T19:19:53;21.60;59.80
45339;DHT22;31071;51.478;5.710;2023-05-27T19:22:18;20.30;59.60
45339;DHT22;31071;51.478;5.710;2023-05-27T19:24:45;20.80;60.00
45339;DHT22;31071;51.478;5.710;2023-05-27T19:27:11;19.70;60.00
45339;DHT22;31071;51.478;5.710;2023-05-27T19:29:36;21.40;61.60
45339;DHT22;31071;51.478;5.710;2023-05-27T19:32:02;20.60;61.80
45339;DHT22;31071;51.478;5.710;2023-05-27T19:34:28;19.30;62.30
45339;DHT22;31071;51.478;5.710;2023-05-27T19:36:53;19.20;62.60
45339;DHT22;31071;51.478;5.710;2023-05-27T19:39:19;20.20;63.50
45339;DHT22;31071;51.478;5.710;2023-05-27T19:41:45;18.80;63.20
45339;DHT22;31071;51.478;5.710;2023-05-27T19:44:11;18.80;63.50
45339;DHT22;31071;51.478;5.710;2023-05-27T19:46:37;18.50;63.70
45339;DHT22;31071;51.478;5.710;2023-05-27T19:49:02;18.50;64.60
45339;DHT22;31071;51.478;5.710;2023-05-27T19:51:28;18.30;65.10
45339;DHT22;31071;51.478;5.710;2023-05-27T19:53:57;18.20;65.40
45339;DHT22;31071;51.478;5.710;2023-05-27T19:56:23;18.10;65.80
45339;DHT22;31071;51.478;5.710;2023-05-27T19:58:51;18.00;66.40
45339;DHT22;31071;51.478;5.710;2023-05-27T20:01:17;17.90;67.00
45339;DHT22;31071;51.478;5.710;2023-05-27T20:03:42;17.80;67.20
45339;DHT22;31071;51.478;5.710;2023-05-27T20:06:09;19.80;68.40
45339;DHT22;31071;51.478;5.710;2023-05-27T20:08:36;17.00;67.60
45339;DHT22;31071;51.478;5.710;2023-05-27T20:11:01;17.50;68.50
45339;DHT22;31071;51.478;5.710;2023-05-27T20:13:27;17.60;68.90
45339;DHT22;31071;51.478;5.710;2023-05-27T20:15:53;17.40;69.10
45339;DHT22;31071;51.478;5.710;2023-05-27T20:18:18;19.30;70.60
45339;DHT22;31071;51.478;5.710;2023-05-27T20:20:44;17.30;69.60
45339;DHT22;31071;51.478;5.710;2023-05-27T20:23:10;17.80;71.70
45339;DHT22;31071;51.478;5.710;2023-05-27T20:25:38;18.20;71.30
45339;DHT22;31071;51.478;5.710;2023-05-27T20:28:04;17.80;71.90
45339;DHT22;31071;51.478;5.710;2023-05-27T20:30:32;16.90;72.00
45339;DHT22;31071;51.478;5.710;2023-05-27T20:33:00;18.00;73.40
45339;DHT22;31071;51.478;5.710;2023-05-27T20:35:29;17.40;73.50
45339;DHT22;31071;51.478;5.710;2023-05-27T20:37:56;17.40;73.60
45339;DHT22;31071;51.478;5.710;2023-05-27T20:40:36;16.60;73.70
45339;DHT22;31071;51.478;5.710;2023-05-27T20:43:03;18.10;76.10
45339;DHT22;31071;51.478;5.710;2023-05-27T20:45:32;16.20;75.30
45339;DHT22;31071;51.478;5.710;2023-05-27T20:48:00;17.60;76.70
45339;DHT22;31071;51.478;5.710;2023-05-27T20:50:35;16.30;76.60
45339;DHT22;31071;51.478;5.710;2023-05-27T20:53:08;18.10;77.90
45339;DHT22;31071;51.478;5.710;2023-05-27T20:55:34;16.20;77.30
45339;DHT22;31071;51.478;5.710;2023-05-27T20:58:01;17.70;78.90
45339;DHT22;31071;51.478;5.710;2023-05-27T21:00:32;16.10;78.00
45339;DHT22;31071;51.478;5.710;2023-05-27T21:02:59;15.50;79.00
45339;DHT22;31071;51.478;5.710;2023-05-27T21:05:27;17.10;80.70
45339;DHT22;31071;51.478;5.710;2023-05-27T21:08:12;15.80;80.70
45339;DHT22;31071;51.478;5.710;2023-05-27T21:10:39;17.20;82.00
45339;DHT22;31071;51.478;5.710;2023-05-27T21:13:04;17.40;82.70
45339;DHT22;31071;51.478;5.710;2023-05-27T21:15:30;16.70;82.80
45339;DHT22;31071;51.478;5.710;2023-05-27T21:18:03;16.70;83.20
45339;DHT22;31071;51.478;5.710;2023-05-27T21:20:34;15.60;83.50
45339;DHT22;31071;51.478;5.710;2023-05-27T21:23:05;15.50;83.60
45339;DHT22;31071;51.478;5.710;2023-05-27T21:25:31;16.10;85.00
45339;DHT22;31071;51.478;5.710;2023-05-27T21:28:04;15.40;86.10
45339;DHT22;31071;51.478;5.710;2023-05-27T21:30:35;15.20;86.30
45339;DHT22;31071;51.478;5.710;2023-05-27T21:33:03;16.20;88.00
45339;DHT22;31071;51.478;5.710;2023-05-27T21:35:29;16.90;89.10
45339;DHT22;31071;51.478;5.710;2023-05-27T21:38:02;15.70;89.20
45339;DHT22;31071;51.478;5.710;2023-05-27T21:40:34;16.50;90.00
45339;DHT22;31071;51.478;5.710;2023-05-27T21:43:03;16.60;90.20
45339;DHT22;31071;51.478;5.710;2023-05-27T21:45:30;14.90;90.00
45339;DHT22;31071;51.478;5.710;2023-05-27T21:47:58;16.30;90.80
45339;DHT22;31071;51.478;5.710;2023-05-27T21:50:24;16.00;91.00
45339;DHT22;31071;51.478;5.710;2023-05-27T21:52:50;15.10;91.00
45339;DHT22;31071;51.478;5.710;2023-05-27T21:55:16;16.60;91.70
45339;DHT22;31071;51.478;5.710;2023-05-27T21:57:43;15.50;91.80
45339;DHT22;31071;51.478;5.710;2023-05-27T22:00:10;16.40;92.50
45339;DHT22;31071;51.478;5.710;2023-05-27T22:02:41;14.50;92.00
45339;DHT22;31071;51.478;5.710;2023-05-27T22:05:10;15.90;92.70
45339;DHT22;31071;51.478;5.710;2023-05-27T22:07:36;14.40;92.70
45339;DHT22;31071;51.478;5.710;2023-05-27T22:10:02;14.40;92.80
45339;DHT22;31071;51.478;5.710;2023-05-27T22:12:27;14.40;92.70
45339;DHT22;31071;51.478;5.710;2023-05-27T22:14:53;14.30;92.90
45339;DHT22;31071;51.478;5.710;2023-05-27T22:17:19;16.10;93.70
45339;DHT22;31071;51.478;5.710;2023-05-27T22:19:44;15.00;93.80
45339;DHT22;31071;51.478;5.710;2023-05-27T22:22:10;14.20;93.70
45339;DHT22;31071;51.478;5.710;2023-05-27T22:24:35;15.80;94.40
45339;DHT22;31071;51.478;5.710;2023-05-27T22:27:01;16.00;94.70
45339;DHT22;31071;51.478;5.710;2023-05-27T22:29:27;14.10;94.30
45339;DHT22;31071;51.478;5.710;2023-05-27T22:31:53;14.10;94.60
45339;DHT22;31071;51.478;5.710;2023-05-27T22:34:18;14.30;94.90
45339;DHT22;31071;51.478;5.710;2023-05-27T22:36:44;15.30;95.20
45339;DHT22;31071;51.478;5.710;2023-05-27T22:39:10;15.60;95.50
45339;DHT22;31071;51.478;5.710;2023-05-27T22:41:36;13.90;95.20
45339;DHT22;31071;51.478;5.710;2023-05-27T22:44:02;15.70;95.90
45339;DHT22;31071;51.478;5.710;2023-05-27T22:46:28;16.00;95.90
45339;DHT22;31071;51.478;5.710;2023-05-27T22:48:54;15.50;96.30
45339;DHT22;31071;51.478;5.710;2023-05-27T22:51:20;15.50;96.30
45339;DHT22;31071;51.478;5.710;2023-05-27T22:53:45;15.00;96.40
45339;DHT22;31071;51.478;5.710;2023-05-27T22:56:13;15.00;96.60
45339;DHT22;31071;51.478;5.710;2023-05-27T22:58:39;15.30;97.00
45339;DHT22;31071;51.478;5.710;2023-05-27T23:01:05;13.60;97.00
45339;DHT22;31071;51.478;5.710;2023-05-27T23:03:31;15.10;97.70
45339;DHT22;31071;51.478;5.710;2023-05-27T23:05:57;13.30;97.30
45339;DHT22;31071;51.478;5.710;2023-05-27T23:08:23;15.00;98.20
45339;DHT22;31071;51.478;5.710;2023-05-27T23:10:49;15.30;98.30
45339;DHT22;31071;51.478;5.710;2023-05-27T23:13:15;15.30;98.40
45339;DHT22;31071;51.478;5.710;2023-05-27T23:15:42;15.30;98.80
45339;DHT22;31071;51.478;5.710;2023-05-27T23:18:08;13.50;98.40
45339;DHT22;31071;51.478;5.710;2023-05-27T23:20:33;15.20;99.10
45339;DHT22;31071;51.478;5.710;2023-05-27T23:22:59;13.70;98.80
45339;DHT22;31071;51.478;5.710;2023-05-27T23:25:25;14.90;99.40
45339;DHT22;31071;51.478;5.710;2023-05-27T23:27:50;13.90;99.40
45339;DHT22;31071;51.478;5.710;2023-05-27T23:30:16;15.10;99.90
45339;DHT22;31071;51.478;5.710;2023-05-27T23:32:43;13.90;99.70
45339;DHT22;31071;51.478;5.710;2023-05-27T23:35:13;13.60;99.90
45339;DHT22;31071;51.478;5.710;2023-05-27T23:37:39;13.30;99.50
45339;DHT22;31071;51.478;5.710;2023-05-27T23:40:05;14.90;99.90
45339;DHT22;31071;51.478;5.710;2023-05-27T23:42:31;13.20;99.90
45339;DHT22;31071;51.478;5.710;2023-05-27T23:44:57;13.60;99.90
45339;DHT22;31071;51.478;5.710;2023-05-27T23:47:22;15.00;99.90
45339;DHT22;31071;51.478;5.710;2023-05-27T23:49:49;13.00;99.90
45339;DHT22;31071;51.478;5.710;2023-05-27T23:52:15;13.70;99.90
45339;DHT22;31071;51.478;5.710;2023-05-27T23:54:40;13.00;99.90
45339;DHT22;31071;51.478;5.710;2023-05-27T23:57:06;14.90;99.90
45339;DHT22;31071;51.478;5.710;2023-05-27T23:59:32;14.50;99.90
